Time;durP1;ratioP1;P1;durP2;ratioP2;P2;SDS_P1;SDS_P2;PMS_P1;PMS_P2;Temp;Humidity;BMP_temperature;BMP_pressure;BME280_temperature;BME280_humidity;BME280_pressure;Samples;Min_cycle;Max_cycle;Signal;HPM_P1;HPM_P2
2023/07/11 00:02:14;;;;;;;14.60;11.60;;;;;;;18.27;73.60;97246.34;101502;1298;637444;-78
2023/07/11 00:05:23;;;;;;;15.10;11.40;;;;;;;18.24;74.14;97244.04;103638;1274;95944;-76
2023/07/11 00:21:37;;;;;;;15.40;11.90;;;;;;;18.15;74.65;97243.71;101306;1294;637690;-77
2023/07/11 00:24:46;;;;;;;15.90;11.90;;;;;;;18.14;74.93;97242.11;103586;1280;96035;-77
2023/07/11 00:40:45;;;;;;;13.90;11.10;;;;;;;18.23;75.03;97227.43;101186;1301;639994;-76
2023/07/11 00:43:33;;;;;;;14.00;10.90;;;;;;;18.22;75.38;97227.75;103359;1281;96129;-78
2023/07/11 00:46:59;;;;;;;13.00;10.80;;;;;;;18.18;75.64;97219.64;102929;1287;96045;-76
2023/07/11 01:05:49;;;;;;;16.70;12.00;;;;;;;18.12;75.72;97212.45;101716;1301;639488;-82
2023/07/11 01:08:58;;;;;;;15.70;11.60;;;;;;;18.12;75.88;97218.72;102984;1285;96738;-78
2023/07/11 01:24:59;;;;;;;15.10;11.00;;;;;;;18.11;76.46;97210.92;101206;1300;636723;-80
2023/07/11 01:28:07;;;;;;;16.20;11.20;;;;;;;18.07;76.73;97212.41;103063;1279;96070;-83
2023/07/11 01:31:16;;;;;;;13.20;11.20;;;;;;;18.03;76.85;97204.08;102238;1289;95938;-79
2023/07/11 01:44:30;;;;;;;14.80;10.70;;;;;;;17.97;76.47;97197.56;101469;1298;651907;-80
2023/07/11 01:47:37;;;;;;;12.90;10.80;;;;;;;17.96;76.69;97210.27;103437;1283;96032;-78
2023/07/11 01:50:44;;;;;;;12.90;10.90;;;;;;;17.96;77.03;97208.42;104442;1266;97161;-80
2023/07/11 01:53:43;;;;;;;12.10;10.30;;;;;;;17.90;77.09;97207.48;103279;1293;98820;-79
2023/07/11 01:56:49;;;;;;;15.60;11.90;;;;;;;17.87;77.11;97202.12;99414;1291;5409850;-79
2023/07/11 01:59:56;;;;;;;18.20;11.10;;;;;;;17.84;77.38;97203.86;103386;1280;99351;-78
2023/07/11 02:15:57;;;;;;;15.20;11.40;;;;;;;17.69;77.38;97208.55;101388;1294;638590;-81
2023/07/11 02:19:05;;;;;;;15.40;11.00;;;;;;;17.61;77.69;97207.37;103049;1284;95995;-76
2023/07/11 02:41:00;;;;;;;16.80;11.10;;;;;;;17.43;78.16;97218.66;101247;1299;637729;-78
2023/07/11 02:43:51;;;;;;;14.40;11.00;;;;;;;17.39;78.48;97219.58;103922;1274;95875;-77
2023/07/11 02:46:59;;;;;;;17.00;11.60;;;;;;;17.41;78.69;97221.33;102936;1286;96730;-78
2023/07/11 02:50:09;;;;;;;13.90;11.90;;;;;;;17.40;78.76;97223.33;102269;1289;98651;-79
2023/07/11 02:53:32;;;;;;;17.00;11.80;;;;;;;17.34;78.79;97224.65;97924;1298;5411214;-77
2023/07/11 03:17:51;;;;;;;16.10;12.70;;;;;;;17.27;79.62;97234.67;101494;1302;636398;-83
2023/07/11 03:20:48;;;;;;;15.10;12.80;;;;;;;17.27;79.71;97237.73;103971;1275;96259;-81
2023/07/11 03:23:28;;;;;;;13.80;12.20;;;;;;;17.27;79.82;97236.96;103976;1276;97235;-76
2023/07/11 03:25:59;;;;;;;17.70;12.80;;;;;;;17.26;79.58;97236.26;103468;1282;99951;-77
2023/07/11 03:31:32;;;;;;;18.10;13.70;;;;;;;17.36;79.75;97243.81;101727;1292;644852;-76
2023/07/11 03:38:54;;;;;;;18.50;13.30;;;;;;;17.40;79.97;97248.45;101275;1297;635378;-75
2023/07/11 03:43:46;;;;;;;16.40;13.00;;;;;;;17.49;80.09;97252.61;101301;1301;636701;-74
2023/07/11 03:47:15;;;;;;;15.20;11.60;;;;;;;17.53;80.27;97257.50;103485;1280;95892;-75
2023/07/11 03:50:23;;;;;;;13.60;11.50;;;;;;;17.58;80.37;97258.42;102957;1286;96754;-77
2023/07/11 03:57:24;;;;;;;13.70;11.80;;;;;;;17.69;80.01;97251.89;101365;1294;643403;-76
2023/07/11 04:01:54;;;;;;;14.10;11.40;;;;;;;17.77;79.78;97252.99;101388;1301;642670;-75
2023/07/11 04:04:59;;;;;;;13.10;11.10;;;;;;;17.77;80.08;97252.60;102799;1287;97321;-77
2023/07/11 04:08:06;;;;;;;12.10;10.90;;;;;;;17.78;80.03;97255.67;102282;1289;95998;-76
2023/07/11 04:20:50;;;;;;;12.60;10.90;;;;;;;18.02;79.48;97269.85;101603;1299;635656;-77
2023/07/11 04:26:17;;;;;;;12.30;10.80;;;;;;;18.11;79.03;97265.72;101139;1298;638960;-78
2023/07/11 04:29:18;;;;;;;13.20;10.60;;;;;;;18.17;78.92;97266.52;103910;1272;95949;-76
2023/07/11 04:34:40;;;;;;;11.80;10.50;;;;;;;18.28;78.48;97270.08;101169;1300;639471;-78
2023/07/11 04:37:36;;;;;;;11.80;10.50;;;;;;;18.29;78.39;97272.00;103664;1278;96115;-77
2023/07/11 04:40:45;;;;;;;12.20;10.70;;;;;;;18.32;78.11;97273.34;102929;1286;95941;-77
2023/07/11 04:44:58;;;;;;;13.80;9.70;;;;;;;18.38;77.90;97272.33;101859;1302;635223;-82
2023/07/11 04:47:59;;;;;;;11.10;9.70;;;;;;;18.41;77.64;97270.60;103558;1275;96025;-79
2023/07/11 04:50:58;;;;;;;14.50;10.10;;;;;;;18.47;77.39;97271.13;103586;1278;96073;-79
2023/07/11 04:54:06;;;;;;;10.90;9.70;;;;;;;18.53;77.35;97272.41;103570;1281;99820;-77
2023/07/11 04:57:05;;;;;;;13.60;9.70;;;;;;;18.61;76.87;97277.67;102363;1300;100399;-80
2023/07/11 05:12:32;;;;;;;12.80;9.10;;;;;;;19.16;75.67;97285.89;101325;1300;636093;-81
2023/07/11 05:15:20;;;;;;;11.50;9.60;;;;;;;19.24;75.55;97281.76;103978;1274;96714;-76
2023/07/11 05:18:20;;;;;;;9.80;8.30;;;;;;;19.32;74.78;97282.05;103811;1276;95919;-76
2023/07/11 05:21:29;;;;;;;9.90;8.70;;;;;;;19.39;74.27;97287.55;103545;1279;98371;-77
2023/07/11 05:24:19;;;;;;;10.40;8.40;;;;;;;19.46;74.16;97288.38;103625;1278;100779;-79
2023/07/11 05:26:58;;;;;;;12.80;9.00;;;;;;;19.54;73.85;97288.48;102112;1272;100117;-77
2023/07/11 05:29:39;;;;;;;10.80;8.60;;;;;;;19.64;73.79;97287.52;103995;1273;97199;-77
2023/07/11 05:32:40;;;;;;;8.70;7.80;;;;;;;19.74;73.63;97287.73;103847;1276;97236;-77
2023/07/11 05:35:08;;;;;;;10.20;8.00;;;;;;;19.85;73.09;97291.80;104199;1288;100239;-76
2023/07/11 05:38:07;;;;;;;10.30;8.10;;;;;;;19.94;72.78;97291.46;104275;1282;99377;-76
2023/07/11 05:40:58;;;;;;;12.00;7.70;;;;;;;20.02;72.24;97290.70;103925;1272;97141;-76
2023/07/11 05:44:06;;;;;;;9.80;8.00;;;;;;;20.12;71.87;97295.30;103978;1275;97141;-75
2023/07/11 05:47:14;;;;;;;13.90;7.60;;;;;;;20.24;71.72;97292.83;103671;1294;100166;-73
2023/07/11 05:50:13;;;;;;;10.80;8.30;;;;;;;20.34;71.43;97293.00;103147;1279;100406;-75
2023/07/11 05:53:22;;;;;;;10.50;8.10;;;;;;;20.42;71.12;97288.44;102574;1297;98864;-76
2023/07/11 06:34:04;;;;;;;11.20;6.70;;;;;;;21.49;65.62;97288.54;105722;1260;94274;-74
2023/07/11 06:37:11;;;;;;;8.00;6.30;;;;;;;21.45;65.53;97292.41;106917;1246;98549;-73
2023/07/11 06:40:18;;;;;;;8.70;6.50;;;;;;;21.38;65.31;97288.27;105990;1257;100043;-74
2023/07/11 06:43:23;;;;;;;9.10;6.70;;;;;;;21.35;65.25;97287.10;104864;1264;97667;-72
2023/07/11 06:46:31;;;;;;;7.60;6.80;;;;;;;21.33;65.17;97288.36;104555;1270;95984;-73
2023/07/11 07:35:49;;;;;;;8.80;5.50;;;;;;;22.11;61.33;97265.02;105603;1265;97936;-73
2023/07/11 07:38:43;;;;;;;5.60;4.90;;;;;;;22.12;60.63;97262.25;106809;1248;100204;-80
2023/07/11 07:41:50;;;;;;;6.40;5.00;;;;;;;22.15;60.35;97257.30;106578;1251;98866;-74
2023/07/11 07:44:57;;;;;;;5.70;5.10;;;;;;;22.20;60.21;97255.81;106359;1257;96782;-73
2023/07/11 07:48:04;;;;;;;7.30;5.20;;;;;;;22.28;60.01;97255.19;106313;1266;96191;-74
2023/07/11 07:51:11;;;;;;;7.90;5.00;;;;;;;22.39;59.64;97260.53;105476;1260;99816;-75
2023/07/11 07:54:18;;;;;;;7.80;5.20;;;;;;;22.52;59.78;97259.63;104608;1273;100383;-73
2023/07/11 08:15:54;;;;;;;5.60;3.90;;;;;;;25.42;54.46;97257.30;101691;1298;636845;-76
2023/07/11 08:18:42;;;;;;;8.00;4.30;;;;;;;25.77;53.23;97254.53;104343;1272;95903;-78
2023/07/11 08:21:10;;;;;;;6.80;3.90;;;;;;;26.14;52.26;97251.38;104194;1275;96005;-76
2023/07/11 08:24:15;;;;;;;7.00;4.40;;;;;;;26.46;52.09;97257.49;104080;1274;98703;-77
2023/07/11 08:26:59;;;;;;;4.10;3.30;;;;;;;26.72;50.79;97255.98;103884;1278;100490;-83
2023/07/11 08:29:47;;;;;;;5.00;3.40;;;;;;;27.00;50.09;97255.27;102293;1276;3223217;-78
2023/07/11 08:32:26;;;;;;;5.70;3.80;;;;;;;27.31;49.68;97259.80;103637;1277;95934;-84
2023/07/11 08:34:54;;;;;;;5.80;3.70;;;;;;;27.47;48.93;97257.09;103312;1282;96148;-84
2023/07/11 08:37:27;;;;;;;3.90;3.50;;;;;;;27.76;47.88;97255.77;103293;1280;98726;-85
2023/07/11 08:39:58;;;;;;;5.50;3.60;;;;;;;28.05;47.52;97261.15;103196;1295;100115;-82
2023/07/11 08:42:55;;;;;;;7.20;3.80;;;;;;;28.26;46.70;97261.92;102463;1288;99102;-83
2023/07/11 08:45:27;;;;;;;4.40;3.30;;;;;;;28.46;45.77;97259.80;101983;1294;96056;-84
2023/07/11 08:48:03;;;;;;;4.30;3.50;;;;;;;28.74;45.13;97256.95;101730;1299;96293;-82
2023/07/11 08:50:41;;;;;;;3.40;2.90;;;;;;;28.95;44.42;97254.20;101704;1300;100005;-80
2023/07/11 08:53:32;;;;;;;4.60;3.40;;;;;;;29.13;43.71;97252.35;101371;1299;100453;-81
2023/07/11 08:56:29;;;;;;;8.40;3.10;;;;;;;29.26;43.20;97256.66;101537;1303;99167;-87
2023/07/11 08:59:02;;;;;;;3.80;3.10;;;;;;;29.25;42.64;97252.04;101341;1303;96146;-85
2023/07/11 09:01:48;;;;;;;3.40;2.90;;;;;;;29.52;42.23;97251.05;100739;1312;96023;-84
2023/07/11 09:04:21;;;;;;;3.00;2.30;;;;;;;29.78;41.81;97249.52;100972;1309;100171;-84
2023/07/11 09:07:39;;;;;;;3.00;2.70;;;;;;;29.88;41.19;97252.04;101031;1309;100556;-83
2023/07/11 09:10:24;;;;;;;3.00;2.80;;;;;;;30.15;40.07;97253.22;101337;1298;98910;-91
2023/07/11 09:13:28;;;;;;;4.50;3.20;;;;;;;30.27;39.31;97255.10;101676;1301;96718;-84
2023/07/11 09:16:37;;;;;;;4.40;2.60;;;;;;;30.47;39.66;97256.21;101686;1301;97079;-86
2023/07/11 09:19:14;;;;;;;4.00;3.20;;;;;;;30.81;39.03;97255.05;101658;1296;100037;-86
2023/07/11 09:22:08;;;;;;;7.50;3.30;;;;;;;31.12;38.42;97257.48;101928;1295;100068;-86
2023/07/11 09:24:42;;;;;;;4.80;3.10;;;;;;;31.37;38.22;97258.91;102392;1291;98550;-83
2023/07/11 09:27:42;;;;;;;3.70;3.20;;;;;;;31.54;37.07;97264.46;102456;1289;95904;-85
2023/07/11 09:30:19;;;;;;;3.10;2.80;;;;;;;31.56;36.91;97261.98;102716;1283;97214;-86
2023/07/11 09:32:48;;;;;;;5.40;3.00;;;;;;;31.54;36.02;97255.70;103328;1285;99973;-86
2023/07/11 09:35:29;;;;;;;3.70;3.20;;;;;;;31.58;35.34;97259.56;103428;1283;100227;-86
2023/07/11 09:38:21;;;;;;;4.50;3.10;;;;;;;31.70;35.49;97268.09;102648;1297;99062;-85
2023/07/11 09:40:58;;;;;;;;;;;;;;;31.76;35.21;97268.05;102352;1295;96253;-90
2023/07/11 09:43:25;;;;;;;3.60;2.90;;;;;;;31.68;34.86;97265.09;102461;1292;97228;-84
2023/07/11 09:45:54;;;;;;;3.90;2.70;;;;;;;31.43;35.05;97264.83;102360;1300;99580;-90
2023/07/11 09:48:34;;;;;;;2.90;2.60;;;;;;;31.46;35.03;97267.89;102420;1285;100926;-84
2023/07/11 09:51:44;;;;;;;3.20;2.90;;;;;;;31.55;34.61;97262.92;102162;1302;99087;-85
2023/07/11 09:54:22;;;;;;;4.70;3.20;;;;;;;31.30;35.25;97269.44;102261;1292;95982;-86
2023/07/11 09:56:51;;;;;;;5.00;2.80;;;;;;;31.24;35.01;97272.45;102037;1298;96905;-88
2023/07/11 09:59:21;;;;;;;6.40;3.10;;;;;;;31.28;34.66;97262.52;101701;1298;99997;-86
2023/07/11 10:01:58;;;;;;;4.40;3.10;;;;;;;31.40;34.53;97262.05;101315;1301;100717;-83
2023/07/11 10:04:27;;;;;;;3.20;2.90;;;;;;;31.50;34.50;97260.05;101028;1325;99129;-83
2023/07/11 10:07:04;;;;;;;3.60;2.50;;;;;;;31.58;34.13;97258.77;100736;1322;96296;-87
2023/07/11 10:09:36;;;;;;;2.70;2.50;;;;;;;31.63;33.92;97266.60;100817;1307;96308;-86
2023/07/11 10:12:14;;;;;;;5.40;2.90;;;;;;;31.58;33.74;97264.74;101202;1315;100031;-86
2023/07/11 10:14:46;;;;;;;4.50;3.20;;;;;;;31.37;33.88;97262.18;101567;1301;100470;-84
2023/07/11 10:17:20;;;;;;;5.80;3.60;;;;;;;31.24;33.84;97263.02;101484;1298;99118;-76
2023/07/11 10:19:56;;;;;;;3.50;3.10;;;;;;;30.78;33.67;97275.48;101147;1308;96230;-77
2023/07/11 10:22:28;;;;;;;7.40;3.30;;;;;;;30.61;34.13;97278.70;101460;1302;96871;-76
2023/07/11 10:25:15;;;;;;;3.30;3.10;;;;;;;30.61;34.23;97278.54;101613;1302;100008;-79
2023/07/11 10:27:50;;;;;;;4.20;3.00;;;;;;;30.58;34.01;97277.25;101022;1305;100529;-79
2023/07/11 10:30:34;;;;;;;6.50;3.30;;;;;;;30.65;33.67;97276.88;101378;1305;99311;-80
2023/07/11 10:33:32;;;;;;;4.40;3.50;;;;;;;30.66;34.13;97276.80;101457;1300;97326;-78
2023/07/11 10:36:25;;;;;;;4.20;3.30;;;;;;;30.51;33.90;97272.58;101522;1305;96038;-79
2023/07/11 10:38:57;;;;;;;4.50;3.10;;;;;;;30.64;33.61;97269.02;102305;1297;100003;-77
2023/07/11 10:41:43;;;;;;;5.10;2.90;;;;;;;30.70;33.82;97266.30;102150;1294;100499;-76
2023/07/11 10:44:22;;;;;;;5.10;3.00;;;;;;;30.56;33.51;97271.34;102009;1303;99156;-76
2023/07/11 10:46:52;;;;;;;3.80;3.10;;;;;;;30.54;33.69;97270.41;102142;1297;96444;-77
2023/07/11 10:49:40;;;;;;;3.60;3.10;;;;;;;30.66;33.52;97274.18;102020;1295;96122;-79
2023/07/11 10:52:19;;;;;;;3.60;3.10;;;;;;;30.52;33.30;97277.39;102033;1294;108564;-76
2023/07/11 10:54:53;;;;;;;7.00;3.10;;;;;;;30.40;33.29;97272.06;102285;1291;100439;-76
2023/07/11 10:57:37;;;;;;;4.50;3.50;;;;;;;30.28;33.46;97272.16;102452;1288;99203;-75
2023/07/11 11:00:19;;;;;;;3.60;3.00;;;;;;;30.36;33.04;97267.04;102678;1286;97589;-76
2023/07/11 11:03:59;;;;;;;3.80;3.00;;;;;;;30.57;33.64;97269.73;103326;1286;96110;-77
2023/07/11 11:07:13;;;;;;;3.40;2.70;;;;;;;30.50;33.09;97272.39;103442;1281;100467;-77
2023/07/11 11:09:52;;;;;;;6.50;3.30;;;;;;;30.43;33.40;97270.10;103260;1282;100289;-78
2023/07/11 11:12:32;;;;;;;10.70;3.50;;;;;;;30.48;33.74;97268.13;103637;1277;98539;-82
2023/07/11 11:15:20;;;;;;;6.30;3.40;;;;;;;30.64;33.20;97271.16;103708;1273;96671;-80
2023/07/11 11:18:10;;;;;;;5.90;3.60;;;;;;;30.76;33.08;97269.05;103854;1274;96177;-74
2023/07/11 11:20:53;;;;;;;6.50;3.40;;;;;;;30.72;33.02;97264.68;104000;1273;100178;-72
2023/07/11 11:23:47;;;;;;;3.90;3.00;;;;;;;30.87;32.80;97261.39;103979;1273;100418;-73
2023/07/11 11:26:41;;;;;;;5.30;3.80;;;;;;;30.94;32.55;97259.71;104383;1267;97448;-72
2023/07/11 11:29:27;;;;;;;5.80;3.70;;;;;;;30.97;32.14;97261.18;104001;1273;96006;-72
2023/07/11 11:32:10;;;;;;;5.30;3.70;;;;;;;31.07;32.14;97259.13;104174;1272;97214;-77
2023/07/11 11:34:51;;;;;;;9.10;3.90;;;;;;;31.18;32.60;97261.80;104340;1279;99948;-75
2023/07/11 11:37:40;;;;;;;5.70;4.00;;;;;;;31.24;32.90;97265.03;104188;1268;100392;-74
2023/07/11 11:40:39;;;;;;;6.10;3.70;;;;;;;31.27;32.43;97262.56;103565;1280;99037;-73
2023/07/11 11:43:12;;;;;;;5.60;4.00;;;;;;;31.05;32.48;97259.77;103508;1276;97326;-73
2023/07/11 11:45:41;;;;;;;6.40;3.70;;;;;;;31.06;32.37;97256.27;103278;1279;97269;-75
2023/07/11 11:48:31;;;;;;;5.50;3.70;;;;;;;31.15;32.88;97258.75;103024;1285;99468;-73
2023/07/11 11:51:15;;;;;;;5.20;3.10;;;;;;;31.27;32.33;97266.80;102902;1290;100023;-74
2023/07/11 11:54:07;;;;;;;9.50;3.90;;;;;;;31.22;31.75;97269.82;102474;1291;99053;-74
2023/07/11 11:56:41;;;;;;;;;;;;;;;31.29;31.72;97266.53;102116;1289;96081;-73
2023/07/11 11:59:25;;;;;;;6.20;3.30;;;;;;;31.08;32.22;97262.50;101955;1295;97330;-73
2023/07/11 12:01:56;;;;;;;3.70;3.40;;;;;;;31.01;32.14;97261.23;102455;1292;100020;-81
2023/07/11 12:04:29;;;;;;;4.60;3.60;;;;;;;31.12;31.60;97261.30;102082;1301;100154;-82
2023/07/11 12:07:29;;;;;;;4.10;3.60;;;;;;;31.20;31.39;97256.36;102070;1294;98912;-81
2023/07/11 12:10:16;;;;;;;5.70;3.50;;;;;;;31.25;32.25;97258.60;102395;1297;97509;-85
2023/07/11 12:13:26;;;;;;;5.50;3.40;;;;;;;31.17;32.19;97258.99;103242;1289;96057;-83
2023/07/11 12:15:56;;;;;;;5.10;3.80;;;;;;;31.30;31.59;97258.61;103124;1286;100003;-85
2023/07/11 12:18:30;;;;;;;4.10;3.70;;;;;;;31.40;31.71;97258.45;103527;1291;101199;-86
2023/07/11 12:21:16;;;;;;;4.30;3.90;;;;;;;31.46;31.43;97257.79;103459;1278;99075;-81
2023/07/11 12:23:51;;;;;;;4.40;3.60;;;;;;;31.55;31.20;97260.12;103690;1278;96803;-82
2023/07/11 12:26:39;;;;;;;4.70;3.70;;;;;;;31.37;31.70;97258.19;104022;1275;96034;-81
2023/07/11 12:29:36;;;;;;;7.10;3.90;;;;;;;31.30;31.72;97257.73;104273;1267;99781;-81
2023/07/11 12:32:45;;;;;;;7.00;3.50;;;;;;;31.13;31.81;97259.41;104461;1270;100383;-82
2023/07/11 12:35:18;;;;;;;6.60;3.70;;;;;;;31.17;31.66;97259.29;104452;1284;99135;-82
2023/07/11 12:38:18;;;;;;;7.00;3.80;;;;;;;30.99;31.93;97257.17;104418;1268;96163;-83
2023/07/11 12:41:15;;;;;;;4.20;3.40;;;;;;;30.66;31.66;97263.19;104362;1269;97143;-82
2023/07/11 12:43:47;;;;;;;5.30;3.30;;;;;;;30.47;31.79;97262.66;104403;1269;100042;-80
2023/07/11 12:46:23;;;;;;;;;;;;;;;30.59;32.32;97262.23;104253;1272;100592;-73
2023/07/11 12:48:51;;;;;;;7.10;3.50;;;;;;;30.67;32.24;97258.54;104399;1267;97848;-74
2023/07/11 12:51:34;;;;;;;5.80;3.30;;;;;;;30.72;31.80;97257.63;104265;1274;96697;-73
2023/07/11 12:54:14;;;;;;;3.40;3.10;;;;;;;30.85;31.28;97253.38;104754;1266;97279;-72
2023/07/11 12:56:55;;;;;;;5.20;3.40;;;;;;;30.80;31.19;97252.08;104294;1271;101589;-73
2023/07/11 12:59:30;;;;;;;6.40;3.80;;;;;;;30.63;31.43;97254.42;104234;1270;100407;-72
2023/07/11 13:02:06;;;;;;;5.60;3.60;;;;;;;30.44;31.55;97254.31;104160;1267;98993;-75
2023/07/11 13:04:42;;;;;;;4.10;3.50;;;;;;;30.32;31.62;97249.40;103983;1270;97105;-74
2023/07/11 13:07:22;;;;;;;9.00;3.30;;;;;;;30.31;31.69;97249.78;103535;1279;97071;-71
2023/07/11 13:10:20;;;;;;;4.50;3.40;;;;;;;30.33;31.73;97250.16;103320;1280;101068;-73
2023/07/11 13:12:54;;;;;;;5.50;3.60;;;;;;;30.34;31.47;97252.90;103333;1283;100812;-73
2023/07/11 13:15:30;;;;;;;5.90;3.30;;;;;;;30.25;31.66;97253.85;103158;1283;99085;-73
2023/07/11 13:17:59;;;;;;;6.80;3.70;;;;;;;30.13;32.21;97253.66;103202;1279;98041;-72
2023/07/11 13:20:33;;;;;;;5.00;3.40;;;;;;;30.14;32.38;97250.88;103451;1281;97514;-74
2023/07/11 13:23:04;;;;;;;5.20;3.70;;;;;;;30.24;31.97;97251.58;103433;1277;101379;-73
2023/07/11 13:25:56;;;;;;;4.40;3.80;;;;;;;30.34;32.18;97251.55;103463;1289;100153;-75
2023/07/11 13:28:44;;;;;;;4.70;3.30;;;;;;;30.43;32.10;97249.79;103442;1273;98763;-73
2023/07/11 13:31:42;;;;;;;5.10;3.90;;;;;;;30.47;32.05;97246.17;103569;1274;97839;-72
2023/07/11 13:34:38;;;;;;;5.70;3.40;;;;;;;30.38;32.02;97247.33;103774;1276;97252;-74
2023/07/11 13:37:30;;;;;;;5.30;3.40;;;;;;;30.46;31.82;97245.84;103629;1284;101272;-73
2023/07/11 13:39:58;;;;;;;5.10;3.40;;;;;;;30.56;31.80;97248.37;103858;1270;100494;-74
2023/07/11 13:42:40;;;;;;;5.80;3.50;;;;;;;30.57;31.72;97247.53;103978;1276;99062;-76
2023/07/11 13:45:19;;;;;;;6.40;3.80;;;;;;;30.65;31.66;97243.11;104314;1268;96674;-72
2023/07/11 13:47:49;;;;;;;6.10;3.50;;;;;;;30.65;31.48;97242.86;104300;1271;97098;-73
2023/07/11 13:50:23;;;;;;;5.80;3.90;;;;;;;30.61;31.64;97238.61;104131;1271;101269;-74
2023/07/11 13:53:25;;;;;;;4.50;4.10;;;;;;;30.49;32.19;97237.19;104238;1267;100116;-74
2023/07/11 13:56:15;;;;;;;3.90;3.20;;;;;;;30.59;32.22;97235.16;103870;1285;99055;-72
2023/07/11 13:58:45;;;;;;;3.70;3.10;;;;;;;30.76;31.88;97235.95;103823;1277;97493;-75
2023/07/11 14:01:38;;;;;;;3.70;3.20;;;;;;;30.86;31.41;97235.33;103611;1278;97098;-82
2023/07/11 14:04:33;;;;;;;3.60;3.10;;;;;;;30.88;31.33;97233.39;103439;1291;101326;-83
2023/07/11 14:07:02;;;;;;;5.00;3.10;;;;;;;30.82;30.93;97226.49;103305;1282;100095;-80
2023/07/11 14:09:30;;;;;;;5.00;3.20;;;;;;;30.75;30.87;97228.49;103629;1273;99220;-81
2023/07/11 14:12:05;;;;;;;5.10;3.20;;;;;;;30.67;31.46;97228.92;103602;1277;96806;-81
2023/07/11 14:14:35;;;;;;;5.10;3.70;;;;;;;30.48;31.08;97228.32;103841;1282;97514;-82
2023/07/11 14:17:09;;;;;;;4.20;3.50;;;;;;;30.36;30.82;97229.34;103901;1274;101325;-75
2023/07/11 14:19:37;;;;;;;3.90;3.40;;;;;;;30.35;31.11;97227.08;103819;1277;100720;-74
2023/07/11 14:22:22;;;;;;;3.40;3.10;;;;;;;30.29;31.37;97224.79;103462;1292;99140;-74
2023/07/11 14:24:58;;;;;;;4.90;3.30;;;;;;;30.16;31.17;97226.63;103516;1282;96806;-73
2023/07/11 14:27:35;;;;;;;3.90;3.50;;;;;;;30.03;31.97;97225.67;103748;1276;98469;-74
2023/07/11 14:30:06;;;;;;;5.90;3.70;;;;;;;29.78;32.56;97227.59;103942;1276;101342;-74
2023/07/11 14:32:49;;;;;;;6.00;3.40;;;;;;;29.72;31.99;97226.17;104068;1267;100397;-72
2023/07/11 14:35:28;;;;;;;6.20;3.40;;;;;;;29.82;32.51;97226.38;104428;1270;99426;-74
2023/07/11 14:37:59;;;;;;;3.90;3.40;;;;;;;29.85;32.08;97222.83;104446;1268;97227;-73
2023/07/11 14:40:47;;;;;;;5.70;3.90;;;;;;;29.90;31.86;97223.01;104535;1270;96572;-73
2023/07/11 14:43:21;;;;;;;8.00;3.60;;;;;;;29.99;32.33;97218.62;104525;1264;101097;-74
2023/07/11 14:45:49;;;;;;;4.40;3.60;;;;;;;29.97;32.67;97217.00;104311;1274;100481;-71
2023/07/11 14:48:37;;;;;;;4.50;3.20;;;;;;;29.82;32.24;97217.25;104399;1268;99058;-73
2023/07/11 14:51:19;;;;;;;7.90;3.70;;;;;;;29.59;31.56;97219.25;104447;1267;96732;-73
2023/07/11 14:53:53;;;;;;;5.90;3.90;;;;;;;29.44;31.65;97221.50;104715;1262;97200;-74
2023/07/11 14:56:23;;;;;;;6.00;3.60;;;;;;;29.07;31.89;97223.44;104806;1263;100962;-71
2023/07/11 14:58:56;;;;;;;3.90;3.50;;;;;;;28.70;32.50;97221.80;104778;1262;100111;-75
2023/07/11 15:01:29;;;;;;;5.30;3.40;;;;;;;28.57;33.12;97220.61;104648;1264;98651;-83
2023/07/11 15:04:38;;;;;;;4.90;3.90;;;;;;;28.71;32.87;97217.89;104832;1262;97455;-82
2023/07/11 15:07:19;;;;;;;5.10;3.60;;;;;;;28.92;33.62;97213.01;104775;1259;97254;-82
2023/07/11 15:09:50;;;;;;;4.00;3.60;;;;;;;29.06;33.74;97210.02;104717;1262;101361;-82
2023/07/11 15:12:24;;;;;;;3.70;3.20;;;;;;;29.19;33.04;97212.69;104674;1262;100388;-81
2023/07/11 15:14:55;;;;;;;4.30;3.20;;;;;;;29.37;32.31;97211.27;104633;1260;99465;-83
2023/07/11 15:17:39;;;;;;;5.00;3.90;;;;;;;29.53;32.14;97212.16;104654;1267;96684;-81
2023/07/11 15:20:27;;;;;;;5.00;3.60;;;;;;;29.64;32.13;97207.36;104800;1264;98727;-81
2023/07/11 15:23:19;;;;;;;4.70;3.40;;;;;;;29.73;31.93;97205.14;104487;1260;102445;-87
2023/07/11 15:26:05;;;;;;;4.10;3.50;;;;;;;29.71;32.77;97209.19;104540;1271;100087;-83
2023/07/11 15:28:51;;;;;;;4.10;3.50;;;;;;;29.64;32.87;97212.29;104654;1259;99062;-82
2023/07/11 15:31:31;;;;;;;4.00;3.20;;;;;;;29.72;32.06;97212.09;104749;1262;97051;-82
2023/07/11 15:33:59;;;;;;;4.90;3.20;;;;;;;29.79;32.12;97209.66;104452;1266;96654;-83
2023/07/11 15:36:32;;;;;;;3.80;3.50;;;;;;;29.84;31.54;97207.77;104291;1267;101007;-85
2023/07/11 15:39:00;;;;;;;3.90;3.50;;;;;;;29.85;31.05;97208.67;104400;1270;100140;-83
2023/07/11 15:41:47;;;;;;;6.60;3.00;;;;;;;29.86;30.97;97204.27;104277;1270;99294;-83
2023/07/11 15:44:59;;;;;;;5.80;3.20;;;;;;;29.86;30.97;97202.69;104507;1262;97172;-85
2023/07/11 15:47:33;;;;;;;3.70;3.20;;;;;;;29.67;31.65;97202.33;104436;1267;96679;-74
2023/07/11 15:50:01;;;;;;;5.10;3.40;;;;;;;29.44;31.77;97206.72;104487;1269;101605;-76
2023/07/11 15:52:39;;;;;;;7.60;3.10;;;;;;;29.34;31.28;97212.59;104373;1264;100073;-73
2023/07/11 15:55:14;;;;;;;3.60;3.30;;;;;;;29.30;31.27;97210.78;104500;1267;99041;-77
2023/07/11 15:57:44;;;;;;;6.10;3.10;;;;;;;29.23;30.96;97207.06;104345;1271;97949;-74
2023/07/11 16:00:36;;;;;;;4.40;3.20;;;;;;;29.14;31.29;97208.23;104078;1273;98309;-74
2023/07/11 16:03:06;;;;;;;;;;;;;;;28.94;31.54;97208.55;104152;1273;102248;-80
2023/07/11 16:05:38;;;;;;;6.20;3.00;;;;;;;28.82;31.85;97207.89;104126;1270;100411;-82
2023/07/11 16:08:17;;;;;;;5.40;3.30;;;;;;;28.84;32.13;97205.77;103710;1280;99271;-83
2023/07/11 16:11:19;;;;;;;5.40;3.20;;;;;;;28.82;31.66;97206.32;103683;1280;97493;-79
2023/07/11 16:14:11;;;;;;;4.70;3.20;;;;;;;28.73;31.77;97205.03;103379;1282;97300;-79
2023/07/11 16:16:40;;;;;;;6.90;3.50;;;;;;;28.66;31.45;97202.11;103253;1279;101390;-74
2023/07/11 16:19:35;;;;;;;3.30;3.00;;;;;;;28.64;31.27;97206.69;103208;1282;100125;-74
2023/07/11 16:22:25;;;;;;;3.60;3.30;;;;;;;28.59;31.60;97205.70;103252;1278;97845;-71
2023/07/11 16:25:15;;;;;;;4.50;3.40;;;;;;;28.54;31.78;97202.16;103020;1285;96676;-73
2023/07/11 16:28:09;;;;;;;3.80;3.40;;;;;;;28.52;31.86;97203.40;103000;1285;97089;-72
2023/07/11 16:30:59;;;;;;;7.90;3.50;;;;;;;28.49;31.67;97205.23;102855;1282;101025;-72
2023/07/11 16:33:41;;;;;;;4.00;3.00;;;;;;;28.50;31.68;97204.05;103136;1282;100834;-73
2023/07/11 16:36:30;;;;;;;5.10;3.30;;;;;;;28.49;31.69;97203.89;103387;1279;98062;-72
2023/07/11 16:39:38;;;;;;;4.20;3.60;;;;;;;28.41;32.05;97199.07;103588;1281;97966;-71
2023/07/11 16:42:26;;;;;;;5.50;3.10;;;;;;;28.33;32.42;97201.75;103115;1285;97528;-73
2023/07/11 16:45:28;;;;;;;6.50;3.20;;;;;;;28.33;32.44;97203.15;102915;1282;101496;-71
2023/07/11 16:48:21;;;;;;;4.50;3.40;;;;;;;28.28;32.25;97206.45;103076;1285;100381;-74
2023/07/11 16:51:08;;;;;;;4.50;3.10;;;;;;;28.26;32.59;97205.88;103167;1285;99386;-72
2023/07/11 16:53:36;;;;;;;4.10;2.90;;;;;;;28.25;32.35;97208.89;103611;1274;97977;-74
2023/07/11 16:56:34;;;;;;;4.20;3.50;;;;;;;28.21;32.31;97208.83;103781;1273;96691;-71
2023/07/11 16:59:23;;;;;;;6.30;4.00;;;;;;;28.11;32.45;97211.39;104125;1270;101300;-71
2023/07/11 17:05:33;;;;;;;7.40;4.30;;;;;;;27.89;33.38;97212.45;103860;1270;99226;-79
2023/07/11 17:08:15;;;;;;;6.40;3.80;;;;;;;27.86;33.28;97213.69;103593;1286;97086;-80
2023/07/11 17:10:50;;;;;;;6.90;4.40;;;;;;;27.84;33.26;97212.23;103339;1282;97254;-79
2023/07/11 17:13:27;;;;;;;7.10;4.20;;;;;;;27.79;33.45;97212.09;102836;1285;101486;-79
2023/07/11 17:16:41;;;;;;;5.10;4.00;;;;;;;27.72;33.44;97212.09;102980;1280;100071;-78
2023/07/11 17:19:35;;;;;;;7.40;4.00;;;;;;;27.68;33.60;97212.90;102696;1291;99996;-76
2023/07/11 17:22:24;;;;;;;7.90;3.70;;;;;;;27.61;34.09;97206.09;103556;1279;97813;-79